sensor_id;sensor_type;location;lat;lon;timestamp;P1;durP1;ratioP1;P2;durP2;ratioP2
47725;SDS011;33483;48.294;16.388;2022-08-05T00:01:32;6.93;;;3.53;;
47725;SDS011;33483;48.294;16.388;2022-08-05T00:04:17;4.85;;;3.10;;
47725;SDS011;33483;48.294;16.388;2022-08-05T00:06:44;6.18;;;3.10;;
47725;SDS011;33483;48.294;16.388;2022-08-05T00:09:14;7.47;;;3.38;;
47725;SDS011;33483;48.294;16.388;2022-08-05T00:11:46;5.88;;;3.00;;
47725;SDS011;33483;48.294;16.388;2022-08-05T00:14:21;7.50;;;3.05;;
47725;SDS011;33483;48.294;16.388;2022-08-05T00:16:54;4.72;;;3.10;;
47725;SDS011;33483;48.294;16.388;2022-08-05T00:19:22;5.65;;;3.05;;
47725;SDS011;33483;48.294;16.388;2022-08-05T00:21:58;8.10;;;2.80;;
47725;SDS011;33483;48.294;16.388;2022-08-05T00:24:25;10.30;;;3.33;;
47725;SDS011;33483;48.294;16.388;2022-08-05T00:26:57;3.60;;;3.00;;
47725;SDS011;33483;48.294;16.388;2022-08-05T00:29:25;6.10;;;2.97;;
47725;SDS011;33483;48.294;16.388;2022-08-05T00:31:58;6.00;;;3.10;;
47725;SDS011;33483;48.294;16.388;2022-08-05T00:34:44;5.43;;;3.03;;
47725;SDS011;33483;48.294;16.388;2022-08-05T00:37:33;5.45;;;2.80;;
47725;SDS011;33483;48.294;16.388;2022-08-05T00:40:18;4.65;;;2.88;;
47725;SDS011;33483;48.294;16.388;2022-08-05T00:42:57;5.30;;;3.40;;
47725;SDS011;33483;48.294;16.388;2022-08-05T00:45:27;7.90;;;3.10;;
47725;SDS011;33483;48.294;16.388;2022-08-05T00:48:07;7.18;;;3.17;;
47725;SDS011;33483;48.294;16.388;2022-08-05T00:50:36;6.55;;;3.20;;
47725;SDS011;33483;48.294;16.388;2022-08-05T00:53:06;5.00;;;3.45;;
47725;SDS011;33483;48.294;16.388;2022-08-05T00:55:54;10.75;;;3.40;;
47725;SDS011;33483;48.294;16.388;2022-08-05T00:58:21;10.77;;;3.72;;
47725;SDS011;33483;48.294;16.388;2022-08-05T01:00:53;4.57;;;3.05;;
47725;SDS011;33483;48.294;16.388;2022-08-05T01:03:20;8.98;;;3.03;;
47725;SDS011;33483;48.294;16.388;2022-08-05T01:05:49;4.93;;;3.22;;
47725;SDS011;33483;48.294;16.388;2022-08-05T01:08:19;7.75;;;2.92;;
47725;SDS011;33483;48.294;16.388;2022-08-05T01:11:11;6.93;;;3.33;;
47725;SDS011;33483;48.294;16.388;2022-08-05T01:16:48;8.90;;;3.60;;
47725;SDS011;33483;48.294;16.388;2022-08-05T01:19:29;7.10;;;3.47;;
47725;SDS011;33483;48.294;16.388;2022-08-05T01:30:58;8.82;;;3.40;;
47725;SDS011;33483;48.294;16.388;2022-08-05T01:33:32;5.00;;;3.33;;
47725;SDS011;33483;48.294;16.388;2022-08-05T01:36:08;4.78;;;3.25;;
47725;SDS011;33483;48.294;16.388;2022-08-05T01:38:42;11.68;;;3.65;;
47725;SDS011;33483;48.294;16.388;2022-08-05T01:41:17;6.40;;;3.42;;
47725;SDS011;33483;48.294;16.388;2022-08-05T01:43:51;6.65;;;3.50;;
47725;SDS011;33483;48.294;16.388;2022-08-05T01:46:20;8.07;;;4.03;;
47725;SDS011;33483;48.294;16.388;2022-08-05T01:49:10;6.53;;;3.40;;
47725;SDS011;33483;48.294;16.388;2022-08-05T01:51:55;7.32;;;3.45;;
47725;SDS011;33483;48.294;16.388;2022-08-05T01:54:28;6.78;;;3.55;;
47725;SDS011;33483;48.294;16.388;2022-08-05T01:57:12;5.75;;;3.28;;
47725;SDS011;33483;48.294;16.388;2022-08-05T02:00:04;12.73;;;4.45;;
47725;SDS011;33483;48.294;16.388;2022-08-05T02:02:59;8.98;;;3.65;;
47725;SDS011;33483;48.294;16.388;2022-08-05T02:05:49;9.27;;;4.47;;
47725;SDS011;33483;48.294;16.388;2022-08-05T02:08:25;12.48;;;3.45;;
47725;SDS011;33483;48.294;16.388;2022-08-05T02:13:45;6.55;;;3.50;;
47725;SDS011;33483;48.294;16.388;2022-08-05T02:18:57;6.05;;;3.47;;
47725;SDS011;33483;48.294;16.388;2022-08-05T02:21:38;7.60;;;3.80;;
47725;SDS011;33483;48.294;16.388;2022-08-05T02:24:15;8.18;;;4.35;;
47725;SDS011;33483;48.294;16.388;2022-08-05T02:26:54;8.15;;;4.18;;
47725;SDS011;33483;48.294;16.388;2022-08-05T02:29:25;7.22;;;3.63;;
47725;SDS011;33483;48.294;16.388;2022-08-05T02:32:14;5.85;;;3.40;;
47725;SDS011;33483;48.294;16.388;2022-08-05T02:34:50;6.43;;;3.63;;
47725;SDS011;33483;48.294;16.388;2022-08-05T02:37:20;5.20;;;3.20;;
47725;SDS011;33483;48.294;16.388;2022-08-05T02:39:50;6.85;;;3.97;;
47725;SDS011;33483;48.294;16.388;2022-08-05T02:42:18;6.07;;;3.70;;
47725;SDS011;33483;48.294;16.388;2022-08-05T02:44:53;6.63;;;3.17;;
47725;SDS011;33483;48.294;16.388;2022-08-05T02:47:22;7.28;;;3.10;;
47725;SDS011;33483;48.294;16.388;2022-08-05T02:50:10;8.45;;;3.80;;
47725;SDS011;33483;48.294;16.388;2022-08-05T02:52:43;4.68;;;3.58;;
47725;SDS011;33483;48.294;16.388;2022-08-05T02:55:12;5.80;;;3.47;;
47725;SDS011;33483;48.294;16.388;2022-08-05T02:57:43;7.20;;;3.38;;
47725;SDS011;33483;48.294;16.388;2022-08-05T03:00:36;7.15;;;3.40;;
47725;SDS011;33483;48.294;16.388;2022-08-05T03:03:04;8.45;;;3.47;;
47725;SDS011;33483;48.294;16.388;2022-08-05T03:05:36;4.95;;;3.58;;
47725;SDS011;33483;48.294;16.388;2022-08-05T03:08:25;9.30;;;3.60;;
47725;SDS011;33483;48.294;16.388;2022-08-05T03:10:55;5.50;;;3.47;;
47725;SDS011;33483;48.294;16.388;2022-08-05T03:13:42;6.43;;;3.38;;
47725;SDS011;33483;48.294;16.388;2022-08-05T03:18:57;6.50;;;4.32;;
47725;SDS011;33483;48.294;16.388;2022-08-05T03:21:25;4.68;;;3.10;;
47725;SDS011;33483;48.294;16.388;2022-08-05T03:24:07;8.45;;;3.40;;
47725;SDS011;33483;48.294;16.388;2022-08-05T03:26:38;11.15;;;3.85;;
47725;SDS011;33483;48.294;16.388;2022-08-05T03:29:05;3.95;;;3.10;;
47725;SDS011;33483;48.294;16.388;2022-08-05T03:31:38;7.82;;;3.40;;
47725;SDS011;33483;48.294;16.388;2022-08-05T03:34:24;6.55;;;3.10;;
47725;SDS011;33483;48.294;16.388;2022-08-05T03:36:57;6.10;;;3.78;;
47725;SDS011;33483;48.294;16.388;2022-08-05T03:39:24;6.90;;;3.60;;
47725;SDS011;33483;48.294;16.388;2022-08-05T03:41:53;4.53;;;3.75;;
47725;SDS011;33483;48.294;16.388;2022-08-05T03:44:22;6.93;;;3.58;;
47725;SDS011;33483;48.294;16.388;2022-08-05T03:46:54;10.02;;;3.58;;
47725;SDS011;33483;48.294;16.388;2022-08-05T03:49:21;8.30;;;3.53;;
47725;SDS011;33483;48.294;16.388;2022-08-05T03:52:00;6.85;;;3.20;;
47725;SDS011;33483;48.294;16.388;2022-08-05T03:54:53;6.30;;;3.67;;
47725;SDS011;33483;48.294;16.388;2022-08-05T03:57:43;4.70;;;3.50;;
47725;SDS011;33483;48.294;16.388;2022-08-05T04:00:13;8.15;;;3.50;;
47725;SDS011;33483;48.294;16.388;2022-08-05T04:02:43;6.57;;;3.20;;
47725;SDS011;33483;48.294;16.388;2022-08-05T04:05:31;6.18;;;3.10;;
47725;SDS011;33483;48.294;16.388;2022-08-05T04:08:06;10.13;;;3.83;;
47725;SDS011;33483;48.294;16.388;2022-08-05T04:10:55;5.68;;;3.65;;
47725;SDS011;33483;48.294;16.388;2022-08-05T04:13:24;5.22;;;3.55;;
47725;SDS011;33483;48.294;16.388;2022-08-05T04:16:14;6.53;;;3.30;;
47725;SDS011;33483;48.294;16.388;2022-08-05T04:18:51;8.02;;;3.38;;
47725;SDS011;33483;48.294;16.388;2022-08-05T04:21:20;6.38;;;2.97;;
47725;SDS011;33483;48.294;16.388;2022-08-05T04:24:07;7.57;;;3.42;;
47725;SDS011;33483;48.294;16.388;2022-08-05T04:26:48;9.88;;;3.60;;
47725;SDS011;33483;48.294;16.388;2022-08-05T04:29:17;5.45;;;3.17;;
47725;SDS011;33483;48.294;16.388;2022-08-05T04:31:45;4.88;;;3.28;;
47725;SDS011;33483;48.294;16.388;2022-08-05T04:34:14;5.45;;;3.60;;
47725;SDS011;33483;48.294;16.388;2022-08-05T04:36:59;6.40;;;3.80;;
47725;SDS011;33483;48.294;16.388;2022-08-05T04:39:31;4.75;;;3.20;;
47725;SDS011;33483;48.294;16.388;2022-08-05T04:42:03;6.57;;;3.55;;
47725;SDS011;33483;48.294;16.388;2022-08-05T04:44:30;6.43;;;3.20;;
47725;SDS011;33483;48.294;16.388;2022-08-05T04:46:58;7.30;;;3.65;;
47725;SDS011;33483;48.294;16.388;2022-08-05T04:49:35;5.60;;;3.47;;
47725;SDS011;33483;48.294;16.388;2022-08-05T04:52:26;6.55;;;3.38;;
47725;SDS011;33483;48.294;16.388;2022-08-05T04:54:54;6.38;;;2.97;;
47725;SDS011;33483;48.294;16.388;2022-08-05T04:57:23;5.75;;;3.20;;
47725;SDS011;33483;48.294;16.388;2022-08-05T05:00:03;8.68;;;3.70;;
47725;SDS011;33483;48.294;16.388;2022-08-05T05:02:32;8.63;;;3.83;;
47725;SDS011;33483;48.294;16.388;2022-08-05T05:05:07;4.25;;;3.40;;
47725;SDS011;33483;48.294;16.388;2022-08-05T05:07:52;6.45;;;3.95;;
47725;SDS011;33483;48.294;16.388;2022-08-05T05:10:27;6.30;;;3.50;;
47725;SDS011;33483;48.294;16.388;2022-08-05T05:12:59;7.25;;;3.53;;
47725;SDS011;33483;48.294;16.388;2022-08-05T05:15:30;4.95;;;3.67;;
47725;SDS011;33483;48.294;16.388;2022-08-05T05:18:19;5.18;;;3.33;;
47725;SDS011;33483;48.294;16.388;2022-08-05T05:21:00;8.35;;;3.83;;
47725;SDS011;33483;48.294;16.388;2022-08-05T05:23:34;7.53;;;3.30;;
47725;SDS011;33483;48.294;16.388;2022-08-05T05:26:21;9.85;;;3.80;;
47725;SDS011;33483;48.294;16.388;2022-08-05T05:28:58;6.63;;;3.65;;
47725;SDS011;33483;48.294;16.388;2022-08-05T05:31:25;9.20;;;3.75;;
47725;SDS011;33483;48.294;16.388;2022-08-05T05:33:58;7.75;;;3.42;;
47725;SDS011;33483;48.294;16.388;2022-08-05T05:36:28;11.82;;;3.75;;
47725;SDS011;33483;48.294;16.388;2022-08-05T05:39:02;10.70;;;3.85;;
47725;SDS011;33483;48.294;16.388;2022-08-05T05:41:35;10.20;;;4.00;;
47725;SDS011;33483;48.294;16.388;2022-08-05T05:44:06;10.10;;;3.35;;
47725;SDS011;33483;48.294;16.388;2022-08-05T05:46:58;7.15;;;3.58;;
47725;SDS011;33483;48.294;16.388;2022-08-05T05:49:30;12.20;;;3.55;;
47725;SDS011;33483;48.294;16.388;2022-08-05T05:52:00;6.65;;;3.50;;
47725;SDS011;33483;48.294;16.388;2022-08-05T05:54:35;6.97;;;3.55;;
47725;SDS011;33483;48.294;16.388;2022-08-05T05:57:17;4.68;;;3.58;;
47725;SDS011;33483;48.294;16.388;2022-08-05T05:59:45;6.30;;;3.58;;
47725;SDS011;33483;48.294;16.388;2022-08-05T06:02:15;5.75;;;3.97;;
47725;SDS011;33483;48.294;16.388;2022-08-05T06:04:58;11.23;;;3.53;;
47725;SDS011;33483;48.294;16.388;2022-08-05T06:07:26;7.05;;;3.47;;
47725;SDS011;33483;48.294;16.388;2022-08-05T06:10:08;8.77;;;3.90;;
47725;SDS011;33483;48.294;16.388;2022-08-05T06:12:36;9.00;;;3.70;;
47725;SDS011;33483;48.294;16.388;2022-08-05T06:15:07;8.43;;;3.78;;
47725;SDS011;33483;48.294;16.388;2022-08-05T06:17:49;6.63;;;4.03;;
47725;SDS011;33483;48.294;16.388;2022-08-05T06:20:19;9.90;;;3.30;;
47725;SDS011;33483;48.294;16.388;2022-08-05T06:22:47;4.03;;;2.90;;
47725;SDS011;33483;48.294;16.388;2022-08-05T06:25:16;9.20;;;3.45;;
47725;SDS011;33483;48.294;16.388;2022-08-05T06:28:03;5.97;;;3.63;;
47725;SDS011;33483;48.294;16.388;2022-08-05T06:30:47;13.57;;;4.38;;
47725;SDS011;33483;48.294;16.388;2022-08-05T06:33:14;8.93;;;3.35;;
47725;SDS011;33483;48.294;16.388;2022-08-05T06:35:45;5.40;;;3.58;;
47725;SDS011;33483;48.294;16.388;2022-08-05T06:38:32;6.38;;;4.22;;
47725;SDS011;33483;48.294;16.388;2022-08-05T06:41:03;7.50;;;3.30;;
47725;SDS011;33483;48.294;16.388;2022-08-05T06:43:34;12.02;;;4.30;;
47725;SDS011;33483;48.294;16.388;2022-08-05T06:46:22;7.63;;;3.70;;
47725;SDS011;33483;48.294;16.388;2022-08-05T06:48:56;9.83;;;5.73;;
47725;SDS011;33483;48.294;16.388;2022-08-05T06:51:27;7.53;;;3.42;;
47725;SDS011;33483;48.294;16.388;2022-08-05T06:53:59;5.97;;;3.40;;
47725;SDS011;33483;48.294;16.388;2022-08-05T06:56:30;9.73;;;3.22;;
47725;SDS011;33483;48.294;16.388;2022-08-05T06:59:01;6.03;;;3.35;;
47725;SDS011;33483;48.294;16.388;2022-08-05T07:01:35;9.98;;;3.30;;
47725;SDS011;33483;48.294;16.388;2022-08-05T07:04:06;6.03;;;3.85;;
47725;SDS011;33483;48.294;16.388;2022-08-05T07:06:33;6.57;;;2.90;;
47725;SDS011;33483;48.294;16.388;2022-08-05T07:09:03;5.45;;;3.10;;
47725;SDS011;33483;48.294;16.388;2022-08-05T07:11:33;6.10;;;3.08;;
47725;SDS011;33483;48.294;16.388;2022-08-05T07:14:07;8.82;;;2.90;;
47725;SDS011;33483;48.294;16.388;2022-08-05T07:16:57;7.20;;;3.20;;
47725;SDS011;33483;48.294;16.388;2022-08-05T07:19:46;4.70;;;2.90;;
47725;SDS011;33483;48.294;16.388;2022-08-05T07:22:34;4.97;;;3.03;;
47725;SDS011;33483;48.294;16.388;2022-08-05T07:25:02;5.60;;;3.13;;
47725;SDS011;33483;48.294;16.388;2022-08-05T07:27:51;8.52;;;2.60;;
47725;SDS011;33483;48.294;16.388;2022-08-05T07:30:30;3.88;;;2.67;;
47725;SDS011;33483;48.294;16.388;2022-08-05T07:33:03;6.53;;;2.40;;
47725;SDS011;33483;48.294;16.388;2022-08-05T07:35:39;3.53;;;2.63;;
47725;SDS011;33483;48.294;16.388;2022-08-05T07:38:26;6.15;;;2.97;;
47725;SDS011;33483;48.294;16.388;2022-08-05T07:41:05;6.88;;;2.83;;
47725;SDS011;33483;48.294;16.388;2022-08-05T07:43:54;5.70;;;2.70;;
47725;SDS011;33483;48.294;16.388;2022-08-05T07:46:23;5.10;;;2.58;;
47725;SDS011;33483;48.294;16.388;2022-08-05T07:48:55;3.63;;;2.58;;
47725;SDS011;33483;48.294;16.388;2022-08-05T07:51:31;8.25;;;3.10;;
47725;SDS011;33483;48.294;16.388;2022-08-05T07:54:04;4.53;;;3.10;;
47725;SDS011;33483;48.294;16.388;2022-08-05T07:56:36;6.88;;;2.53;;
47725;SDS011;33483;48.294;16.388;2022-08-05T07:59:24;7.75;;;2.80;;
47725;SDS011;33483;48.294;16.388;2022-08-05T08:02:07;6.00;;;3.03;;
47725;SDS011;33483;48.294;16.388;2022-08-05T08:04:43;6.22;;;2.67;;
47725;SDS011;33483;48.294;16.388;2022-08-05T08:07:12;4.03;;;2.67;;
47725;SDS011;33483;48.294;16.388;2022-08-05T08:09:40;5.22;;;3.13;;
47725;SDS011;33483;48.294;16.388;2022-08-05T08:12:09;7.57;;;2.55;;
47725;SDS011;33483;48.294;16.388;2022-08-05T08:14:59;10.30;;;2.90;;
47725;SDS011;33483;48.294;16.388;2022-08-05T08:17:30;9.93;;;2.92;;
47725;SDS011;33483;48.294;16.388;2022-08-05T08:19:58;7.18;;;2.75;;
47725;SDS011;33483;48.294;16.388;2022-08-05T08:22:52;7.00;;;2.70;;
47725;SDS011;33483;48.294;16.388;2022-08-05T08:25:28;4.22;;;2.92;;
47725;SDS011;33483;48.294;16.388;2022-08-05T08:28:19;5.00;;;2.83;;
47725;SDS011;33483;48.294;16.388;2022-08-05T08:31:06;3.60;;;2.72;;
47725;SDS011;33483;48.294;16.388;2022-08-05T08:33:34;6.72;;;2.85;;
47725;SDS011;33483;48.294;16.388;2022-08-05T08:36:05;7.05;;;2.90;;
47725;SDS011;33483;48.294;16.388;2022-08-05T08:38:55;5.95;;;2.67;;
47725;SDS011;33483;48.294;16.388;2022-08-05T08:41:27;4.63;;;2.78;;
47725;SDS011;33483;48.294;16.388;2022-08-05T08:44:19;5.30;;;2.28;;
47725;SDS011;33483;48.294;16.388;2022-08-05T08:47:11;8.45;;;2.70;;
47725;SDS011;33483;48.294;16.388;2022-08-05T08:49:59;6.55;;;2.55;;
47725;SDS011;33483;48.294;16.388;2022-08-05T08:52:50;5.68;;;2.95;;
47725;SDS011;33483;48.294;16.388;2022-08-05T08:55:21;8.57;;;2.97;;
47725;SDS011;33483;48.294;16.388;2022-08-05T08:58:08;10.23;;;3.03;;
47725;SDS011;33483;48.294;16.388;2022-08-05T09:00:39;4.30;;;2.47;;
47725;SDS011;33483;48.294;16.388;2022-08-05T09:03:10;6.97;;;2.63;;
47725;SDS011;33483;48.294;16.388;2022-08-05T09:05:42;2.90;;;2.30;;
47725;SDS011;33483;48.294;16.388;2022-08-05T09:08:29;4.68;;;2.22;;
47725;SDS011;33483;48.294;16.388;2022-08-05T09:10:56;5.97;;;2.78;;
47725;SDS011;33483;48.294;16.388;2022-08-05T09:13:25;6.25;;;2.60;;
47725;SDS011;33483;48.294;16.388;2022-08-05T09:15:57;6.57;;;3.08;;
47725;SDS011;33483;48.294;16.388;2022-08-05T09:18:30;5.80;;;2.55;;
47725;SDS011;33483;48.294;16.388;2022-08-05T09:20:57;3.53;;;3.00;;
47725;SDS011;33483;48.294;16.388;2022-08-05T09:23:25;7.78;;;2.85;;
47725;SDS011;33483;48.294;16.388;2022-08-05T09:26:13;6.30;;;3.10;;
47725;SDS011;33483;48.294;16.388;2022-08-05T09:28:47;5.70;;;2.53;;
47725;SDS011;33483;48.294;16.388;2022-08-05T09:31:15;6.40;;;2.92;;
47725;SDS011;33483;48.294;16.388;2022-08-05T09:34:07;4.13;;;2.40;;
47725;SDS011;33483;48.294;16.388;2022-08-05T09:36:49;6.45;;;2.75;;
47725;SDS011;33483;48.294;16.388;2022-08-05T09:39:25;4.35;;;2.70;;
47725;SDS011;33483;48.294;16.388;2022-08-05T09:42:15;4.10;;;2.50;;
47725;SDS011;33483;48.294;16.388;2022-08-05T09:44:54;4.97;;;2.63;;
47725;SDS011;33483;48.294;16.388;2022-08-05T09:47:44;6.00;;;2.88;;
47725;SDS011;33483;48.294;16.388;2022-08-05T09:50:32;5.25;;;2.90;;
47725;SDS011;33483;48.294;16.388;2022-08-05T09:53:11;6.22;;;2.85;;
47725;SDS011;33483;48.294;16.388;2022-08-05T09:55:52;3.90;;;2.65;;
47725;SDS011;33483;48.294;16.388;2022-08-05T09:58:36;4.97;;;2.78;;
47725;SDS011;33483;48.294;16.388;2022-08-05T10:01:11;5.28;;;2.08;;
47725;SDS011;33483;48.294;16.388;2022-08-05T10:03:59;3.78;;;2.33;;
47725;SDS011;33483;48.294;16.388;2022-08-05T10:06:41;4.70;;;2.93;;
47725;SDS011;33483;48.294;16.388;2022-08-05T10:09:25;3.20;;;2.78;;
47725;SDS011;33483;48.294;16.388;2022-08-05T10:12:07;3.63;;;2.40;;
47725;SDS011;33483;48.294;16.388;2022-08-05T10:15:11;4.35;;;2.50;;
47725;SDS011;33483;48.294;16.388;2022-08-05T10:20:33;7.20;;;2.78;;
47725;SDS011;33483;48.294;16.388;2022-08-05T10:23:03;11.70;;;3.30;;
47725;SDS011;33483;48.294;16.388;2022-08-05T10:25:47;8.15;;;4.72;;
47725;SDS011;33483;48.294;16.388;2022-08-05T10:28:15;4.13;;;2.72;;
47725;SDS011;33483;48.294;16.388;2022-08-05T10:30:55;5.38;;;2.83;;
47725;SDS011;33483;48.294;16.388;2022-08-05T10:33:43;7.90;;;3.10;;
47725;SDS011;33483;48.294;16.388;2022-08-05T10:36:17;9.52;;;2.88;;
47725;SDS011;33483;48.294;16.388;2022-08-05T10:38:54;6.93;;;2.53;;
47725;SDS011;33483;48.294;16.388;2022-08-05T10:41:35;5.25;;;2.55;;
47725;SDS011;33483;48.294;16.388;2022-08-05T10:44:15;4.95;;;2.90;;
47725;SDS011;33483;48.294;16.388;2022-08-05T10:46:45;4.28;;;2.78;;
47725;SDS011;33483;48.294;16.388;2022-08-05T10:49:22;4.22;;;2.70;;
47725;SDS011;33483;48.294;16.388;2022-08-05T10:51:59;5.03;;;2.80;;
47725;SDS011;33483;48.294;16.388;2022-08-05T10:55:19;11.02;;;2.75;;
47725;SDS011;33483;48.294;16.388;2022-08-05T10:57:34;8.40;;;3.00;;
47725;SDS011;33483;48.294;16.388;2022-08-05T11:00:08;7.40;;;2.83;;
47725;SDS011;33483;48.294;16.388;2022-08-05T11:06:05;5.95;;;2.88;;
47725;SDS011;33483;48.294;16.388;2022-08-05T11:09:08;4.43;;;2.80;;
47725;SDS011;33483;48.294;16.388;2022-08-05T11:11:45;4.53;;;2.95;;
47725;SDS011;33483;48.294;16.388;2022-08-05T11:23:26;4.68;;;3.10;;
47725;SDS011;33483;48.294;16.388;2022-08-05T11:28:54;5.88;;;2.60;;
47725;SDS011;33483;48.294;16.388;2022-08-05T11:31:23;4.38;;;2.85;;
47725;SDS011;33483;48.294;16.388;2022-08-05T11:34:24;4.50;;;3.08;;
47725;SDS011;33483;48.294;16.388;2022-08-05T11:37:02;7.25;;;2.78;;
47725;SDS011;33483;48.294;16.388;2022-08-05T11:39:52;11.05;;;2.90;;
47725;SDS011;33483;48.294;16.388;2022-08-05T11:42:26;4.63;;;3.20;;
47725;SDS011;33483;48.294;16.388;2022-08-05T11:44:55;8.68;;;3.13;;
47725;SDS011;33483;48.294;16.388;2022-08-05T11:47:31;8.55;;;2.72;;
47725;SDS011;33483;48.294;16.388;2022-08-05T11:50:16;7.45;;;3.00;;
47725;SDS011;33483;48.294;16.388;2022-08-05T11:52:45;4.70;;;2.78;;
47725;SDS011;33483;48.294;16.388;2022-08-05T11:55:16;4.63;;;3.22;;
47725;SDS011;33483;48.294;16.388;2022-08-05T11:57:45;5.95;;;3.20;;
47725;SDS011;33483;48.294;16.388;2022-08-05T12:00:32;3.65;;;2.83;;
47725;SDS011;33483;48.294;16.388;2022-08-05T12:03:19;5.25;;;3.10;;
47725;SDS011;33483;48.294;16.388;2022-08-05T12:06:01;7.80;;;3.05;;
47725;SDS011;33483;48.294;16.388;2022-08-05T12:08:48;3.80;;;2.95;;
47725;SDS011;33483;48.294;16.388;2022-08-05T12:11:19;5.70;;;3.17;;
47725;SDS011;33483;48.294;16.388;2022-08-05T12:13:54;4.55;;;3.30;;
47725;SDS011;33483;48.294;16.388;2022-08-05T12:16:40;5.00;;;3.40;;
47725;SDS011;33483;48.294;16.388;2022-08-05T12:19:15;6.00;;;3.40;;
47725;SDS011;33483;48.294;16.388;2022-08-05T12:22:04;6.28;;;2.90;;
47725;SDS011;33483;48.294;16.388;2022-08-05T12:24:39;6.57;;;3.40;;
47725;SDS011;33483;48.294;16.388;2022-08-05T12:27:20;5.68;;;3.20;;
47725;SDS011;33483;48.294;16.388;2022-08-05T12:32:32;5.55;;;3.15;;
47725;SDS011;33483;48.294;16.388;2022-08-05T12:35:09;5.78;;;3.00;;
47725;SDS011;33483;48.294;16.388;2022-08-05T12:37:44;7.88;;;3.15;;
47725;SDS011;33483;48.294;16.388;2022-08-05T12:40:19;4.15;;;2.55;;
47725;SDS011;33483;48.294;16.388;2022-08-05T12:42:54;3.97;;;2.45;;
47725;SDS011;33483;48.294;16.388;2022-08-05T12:45:22;3.25;;;2.30;;
47725;SDS011;33483;48.294;16.388;2022-08-05T12:48:13;4.65;;;2.30;;
47725;SDS011;33483;48.294;16.388;2022-08-05T12:51:14;4.15;;;2.17;;
47725;SDS011;33483;48.294;16.388;2022-08-05T12:54:06;2.90;;;2.20;;
47725;SDS011;33483;48.294;16.388;2022-08-05T12:56:50;5.82;;;2.00;;
47725;SDS011;33483;48.294;16.388;2022-08-05T12:59:29;2.85;;;2.20;;
47725;SDS011;33483;48.294;16.388;2022-08-05T13:02:20;2.10;;;1.90;;
47725;SDS011;33483;48.294;16.388;2022-08-05T13:04:59;3.65;;;2.00;;
47725;SDS011;33483;48.294;16.388;2022-08-05T13:07:39;2.53;;;1.80;;
47725;SDS011;33483;48.294;16.388;2022-08-05T13:10:27;3.80;;;2.00;;
47725;SDS011;33483;48.294;16.388;2022-08-05T13:15:34;4.45;;;1.90;;
47725;SDS011;33483;48.294;16.388;2022-08-05T13:18:17;3.67;;;2.15;;
47725;SDS011;33483;48.294;16.388;2022-08-05T13:20:46;5.50;;;2.08;;
47725;SDS011;33483;48.294;16.388;2022-08-05T13:23:16;3.20;;;1.70;;
47725;SDS011;33483;48.294;16.388;2022-08-05T13:25:49;3.35;;;2.13;;
47725;SDS011;33483;48.294;16.388;2022-08-05T13:28:26;5.43;;;2.17;;
47725;SDS011;33483;48.294;16.388;2022-08-05T13:30:54;3.25;;;2.08;;
47725;SDS011;33483;48.294;16.388;2022-08-05T13:33:22;3.90;;;1.80;;
47725;SDS011;33483;48.294;16.388;2022-08-05T13:36:12;2.85;;;2.00;;
47725;SDS011;33483;48.294;16.388;2022-08-05T13:38:40;2.65;;;1.90;;
47725;SDS011;33483;48.294;16.388;2022-08-05T13:41:09;2.42;;;1.80;;
47725;SDS011;33483;48.294;16.388;2022-08-05T13:43:37;2.60;;;1.92;;
47725;SDS011;33483;48.294;16.388;2022-08-05T13:46:17;3.38;;;1.90;;
47725;SDS011;33483;48.294;16.388;2022-08-05T13:49:05;3.78;;;2.08;;
47725;SDS011;33483;48.294;16.388;2022-08-05T13:51:37;3.28;;;2.05;;
47725;SDS011;33483;48.294;16.388;2022-08-05T13:54:07;2.40;;;1.98;;
47725;SDS011;33483;48.294;16.388;2022-08-05T13:56:39;3.45;;;1.98;;
47725;SDS011;33483;48.294;16.388;2022-08-05T13:59:17;2.38;;;1.90;;
47725;SDS011;33483;48.294;16.388;2022-08-05T14:01:53;3.88;;;1.88;;
47725;SDS011;33483;48.294;16.388;2022-08-05T14:04:29;5.07;;;1.90;;
47725;SDS011;33483;48.294;16.388;2022-08-05T14:07:19;2.72;;;1.98;;
47725;SDS011;33483;48.294;16.388;2022-08-05T14:10:09;3.25;;;2.05;;
47725;SDS011;33483;48.294;16.388;2022-08-05T14:12:55;4.63;;;2.17;;
47725;SDS011;33483;48.294;16.388;2022-08-05T14:15:23;2.03;;;1.83;;
47725;SDS011;33483;48.294;16.388;2022-08-05T14:18:11;2.75;;;1.92;;
47725;SDS011;33483;48.294;16.388;2022-08-05T14:20:45;4.30;;;2.08;;
47725;SDS011;33483;48.294;16.388;2022-08-05T14:23:16;3.70;;;2.10;;
47725;SDS011;33483;48.294;16.388;2022-08-05T14:25:53;2.38;;;1.83;;
47725;SDS011;33483;48.294;16.388;2022-08-05T14:28:26;4.28;;;2.13;;
47725;SDS011;33483;48.294;16.388;2022-08-05T14:30:57;2.30;;;1.70;;
47725;SDS011;33483;48.294;16.388;2022-08-05T14:33:27;2.22;;;1.90;;
47725;SDS011;33483;48.294;16.388;2022-08-05T14:36:14;7.18;;;2.05;;
47725;SDS011;33483;48.294;16.388;2022-08-05T14:38:47;3.08;;;2.00;;
47725;SDS011;33483;48.294;16.388;2022-08-05T14:41:15;2.20;;;1.80;;
47725;SDS011;33483;48.294;16.388;2022-08-05T14:43:45;4.97;;;2.33;;
47725;SDS011;33483;48.294;16.388;2022-08-05T14:46:33;5.25;;;2.10;;
47725;SDS011;33483;48.294;16.388;2022-08-05T14:49:02;3.38;;;2.30;;
47725;SDS011;33483;48.294;16.388;2022-08-05T14:51:38;2.88;;;2.17;;
47725;SDS011;33483;48.294;16.388;2022-08-05T14:54:09;3.85;;;2.15;;
47725;SDS011;33483;48.294;16.388;2022-08-05T14:56:55;4.80;;;1.90;;
47725;SDS011;33483;48.294;16.388;2022-08-05T14:59:23;3.53;;;2.00;;
47725;SDS011;33483;48.294;16.388;2022-08-05T15:02:01;3.38;;;2.30;;
47725;SDS011;33483;48.294;16.388;2022-08-05T15:04:45;3.55;;;2.33;;
47725;SDS011;33483;48.294;16.388;2022-08-05T15:07:20;3.05;;;2.17;;
47725;SDS011;33483;48.294;16.388;2022-08-05T15:10:07;6.28;;;2.00;;
47725;SDS011;33483;48.294;16.388;2022-08-05T15:12:35;2.38;;;1.98;;
47725;SDS011;33483;48.294;16.388;2022-08-05T15:15:24;3.88;;;2.40;;
47725;SDS011;33483;48.294;16.388;2022-08-05T15:18:15;3.50;;;1.90;;
47725;SDS011;33483;48.294;16.388;2022-08-05T15:20:43;3.58;;;2.30;;
47725;SDS011;33483;48.294;16.388;2022-08-05T15:23:12;3.40;;;2.25;;
47725;SDS011;33483;48.294;16.388;2022-08-05T15:25:40;7.00;;;2.30;;
47725;SDS011;33483;48.294;16.388;2022-08-05T15:28:21;4.47;;;2.30;;
47725;SDS011;33483;48.294;16.388;2022-08-05T15:30:55;3.58;;;2.20;;
47725;SDS011;33483;48.294;16.388;2022-08-05T15:33:23;6.05;;;2.30;;
47725;SDS011;33483;48.294;16.388;2022-08-05T15:36:10;3.67;;;2.28;;
47725;SDS011;33483;48.294;16.388;2022-08-05T15:38:50;5.07;;;2.40;;
47725;SDS011;33483;48.294;16.388;2022-08-05T15:41:38;4.35;;;2.30;;
47725;SDS011;33483;48.294;16.388;2022-08-05T15:44:25;4.82;;;2.30;;
47725;SDS011;33483;48.294;16.388;2022-08-05T15:46:55;5.03;;;2.40;;
47725;SDS011;33483;48.294;16.388;2022-08-05T15:49:27;4.30;;;2.30;;
47725;SDS011;33483;48.294;16.388;2022-08-05T15:52:14;3.30;;;2.45;;
47725;SDS011;33483;48.294;16.388;2022-08-05T15:55:01;2.85;;;2.28;;
47725;SDS011;33483;48.294;16.388;2022-08-05T15:57:29;4.80;;;2.47;;
47725;SDS011;33483;48.294;16.388;2022-08-05T16:00:01;5.28;;;2.47;;
47725;SDS011;33483;48.294;16.388;2022-08-05T16:02:31;5.22;;;2.40;;
47725;SDS011;33483;48.294;16.388;2022-08-05T16:05:00;3.15;;;2.03;;
47725;SDS011;33483;48.294;16.388;2022-08-05T16:07:27;2.97;;;2.40;;
47725;SDS011;33483;48.294;16.388;2022-08-05T16:09:55;7.68;;;2.40;;
47725;SDS011;33483;48.294;16.388;2022-08-05T16:12:24;3.50;;;2.33;;
47725;SDS011;33483;48.294;16.388;2022-08-05T16:14:52;5.50;;;2.58;;